createdAt,value
2022-11-17T00:01:54.651Z,3.83
2022-11-17T00:04:21.690Z,4.40
2022-11-17T00:06:48.422Z,3.70
2022-11-17T00:09:17.471Z,4.47
2022-11-17T00:12:04.142Z,3.90
2022-11-17T00:14:36.434Z,5.28
2022-11-17T00:17:06.370Z,4.82
2022-11-17T00:19:51.570Z,6.38
2022-11-17T00:22:18.554Z,5.70
2022-11-17T00:24:45.262Z,6.32
2022-11-17T00:27:12.456Z,6.60
2022-11-17T00:29:39.561Z,5.93
2022-11-17T00:32:29.896Z,6.70
2022-11-17T00:34:56.964Z,6.80
2022-11-17T00:37:24.338Z,9.30
2022-11-17T00:39:52.449Z,6.68
2022-11-17T00:42:20.852Z,7.88
2022-11-17T00:44:47.681Z,8.23
2022-11-17T00:47:14.510Z,7.45
2022-11-17T00:49:41.339Z,8.38
2022-11-17T00:52:09.630Z,7.90
2022-11-17T00:54:36.695Z,7.50
2022-11-17T00:57:03.611Z,8.25
2022-11-17T00:59:30.316Z,8.23
2022-11-17T01:01:57.119Z,6.60
2022-11-17T01:04:23.994Z,7.43
2022-11-17T01:06:50.847Z,7.80
2022-11-17T01:09:21.979Z,7.40
2022-11-17T01:11:51.374Z,6.80
2022-11-17T01:14:21.279Z,7.00
2022-11-17T01:16:48.122Z,8.05
2022-11-17T01:19:16.257Z,8.07
2022-11-17T01:21:43.305Z,8.30
2022-11-17T01:24:11.619Z,8.20
2022-11-17T01:26:39.316Z,8.80
2022-11-17T01:29:07.865Z,9.27
2022-11-17T01:31:38.066Z,7.82
2022-11-17T01:34:05.386Z,8.88
2022-11-17T01:36:53.104Z,7.40
2022-11-17T01:39:20.451Z,8.13
2022-11-17T01:41:47.344Z,8.15
2022-11-17T01:44:36.275Z,8.55
2022-11-17T01:47:28.786Z,7.05
2022-11-17T01:50:04.002Z,7.25
2022-11-17T01:52:31.870Z,8.05
2022-11-17T01:55:00.156Z,7.88
2022-11-17T01:57:45.652Z,7.78
2022-11-17T02:00:13.234Z,10.07
2022-11-17T02:02:41.885Z,7.75
2022-11-17T02:05:50.110Z,8.45
2022-11-17T02:08:18.857Z,5.90
2022-11-17T02:10:51.485Z,7.40
2022-11-17T02:13:20.402Z,7.60
2022-11-17T02:15:47.608Z,6.95
2022-11-17T02:18:16.354Z,6.75
2022-11-17T02:20:52.001Z,6.75
2022-11-17T02:23:46.596Z,5.72
2022-11-17T02:26:31.308Z,7.85
2022-11-17T02:29:16.198Z,6.40
2022-11-17T02:31:55.766Z,5.75
2022-11-17T02:34:32.753Z,6.22
2022-11-17T02:37:30.007Z,8.52
2022-11-17T02:40:33.116Z,6.72
2022-11-17T02:43:22.449Z,6.00
2022-11-17T02:46:00.059Z,6.10
2022-11-17T02:48:39.825Z,6.50
2022-11-17T02:51:12.096Z,6.50
2022-11-17T02:56:07.392Z,4.82
2022-11-17T02:58:34.360Z,5.63
2022-11-17T03:01:13.481Z,5.50
2022-11-17T03:03:51.226Z,5.82
2022-11-17T03:06:23.928Z,6.68
2022-11-17T03:08:52.037Z,6.60
2022-11-17T03:11:23.147Z,5.50
2022-11-17T03:14:08.808Z,5.75
2022-11-17T03:16:48.689Z,4.60
2022-11-17T03:19:26.122Z,4.97
2022-11-17T03:21:59.299Z,5.60
2022-11-17T03:24:31.149Z,5.95
2022-11-17T03:27:04.070Z,5.25
2022-11-17T03:29:33.569Z,6.22
2022-11-17T03:32:03.401Z,5.15
2022-11-17T03:34:35.654Z,6.03
2022-11-17T03:37:05.492Z,7.43
2022-11-17T03:39:35.946Z,6.25
2022-11-17T03:42:10.138Z,5.55
2022-11-17T03:44:42.219Z,7.30
2022-11-17T03:49:59.655Z,5.22
2022-11-17T03:52:29.654Z,7.68
2022-11-17T03:54:56.781Z,5.50
2022-11-17T03:57:40.040Z,4.68
2022-11-17T04:00:16.075Z,9.95
2022-11-17T04:02:44.894Z,6.30
2022-11-17T04:05:13.219Z,5.80
2022-11-17T04:07:45.210Z,5.70
2022-11-17T04:10:18.498Z,6.80
2022-11-17T04:13:04.244Z,5.22
2022-11-17T04:15:49.464Z,6.07
2022-11-17T04:18:16.102Z,7.05
2022-11-17T04:20:42.949Z,5.90
2022-11-17T04:23:15.036Z,6.82
2022-11-17T04:28:39.575Z,6.05
2022-11-17T04:31:14.023Z,4.68
2022-11-17T04:33:48.738Z,6.32
2022-11-17T04:36:18.050Z,6.60
2022-11-17T04:38:50.084Z,7.35
2022-11-17T04:41:36.692Z,6.43
2022-11-17T04:44:06.502Z,8.63
2022-11-17T04:46:34.707Z,5.88
2022-11-17T04:49:02.244Z,6.30
2022-11-17T04:51:30.271Z,5.15
2022-11-17T04:53:57.593Z,9.15
2022-11-17T04:56:25.089Z,7.22
2022-11-17T04:58:52.234Z,6.47
2022-11-17T05:01:19.982Z,5.90
2022-11-17T05:04:01.470Z,7.45
2022-11-17T05:06:46.354Z,10.55
2022-11-17T05:09:15.639Z,8.55
2022-11-17T05:12:01.975Z,8.43
2022-11-17T05:14:30.065Z,9.93
2022-11-17T05:17:11.017Z,9.82
2022-11-17T05:19:46.416Z,10.85
2022-11-17T05:22:41.616Z,10.45
2022-11-17T05:25:08.934Z,11.88
2022-11-17T05:27:36.088Z,14.20
2022-11-17T05:30:04.327Z,12.63
2022-11-17T05:32:31.011Z,12.80
2022-11-17T05:34:57.868Z,12.25
2022-11-17T05:37:24.729Z,12.75
2022-11-17T05:39:51.346Z,14.13
2022-11-17T05:42:18.291Z,12.70
2022-11-17T05:44:45.003Z,13.80
2022-11-17T05:47:11.961Z,15.82
2022-11-17T05:49:38.612Z,16.45
2022-11-17T05:52:05.431Z,12.90
2022-11-17T05:54:32.213Z,13.75
2022-11-17T05:57:07.735Z,12.65
2022-11-17T05:59:43.465Z,14.80
2022-11-17T06:02:19.863Z,15.13
2022-11-17T06:04:49.331Z,13.82
2022-11-17T06:07:18.044Z,14.48
2022-11-17T06:09:46.342Z,12.93
2022-11-17T06:12:13.164Z,13.23
2022-11-17T06:14:39.956Z,13.27
2022-11-17T06:17:21.770Z,13.15
2022-11-17T06:19:54.896Z,12.10
2022-11-17T06:22:21.566Z,12.65
2022-11-17T06:24:48.412Z,13.75
2022-11-17T06:27:17.272Z,15.45
2022-11-17T06:29:45.389Z,13.48
2022-11-17T06:32:14.497Z,15.30
2022-11-17T06:34:43.718Z,13.57
2022-11-17T06:37:11.424Z,14.85
2022-11-17T06:39:38.320Z,18.23
2022-11-17T06:42:05.083Z,13.93
2022-11-17T06:44:31.780Z,16.70
2022-11-17T06:46:58.504Z,12.55
2022-11-17T06:49:25.153Z,13.38
2022-11-17T06:51:52.501Z,15.38
2022-11-17T06:54:19.300Z,13.20
2022-11-17T06:56:46.087Z,13.90
2022-11-17T06:59:12.716Z,12.10
2022-11-17T07:01:39.425Z,12.80
2022-11-17T07:04:06.764Z,14.07
2022-11-17T07:06:36.749Z,11.88
2022-11-17T07:09:05.056Z,12.48
2022-11-17T07:11:36.021Z,12.93
2022-11-17T07:14:03.672Z,12.77
2022-11-17T07:16:31.063Z,11.57
2022-11-17T07:18:59.215Z,11.82
2022-11-17T07:21:26.370Z,8.65
2022-11-17T07:23:53.110Z,13.98
2022-11-17T07:26:19.862Z,12.05
2022-11-17T07:28:46.619Z,11.90
2022-11-17T07:31:13.448Z,12.88
2022-11-17T07:33:40.084Z,11.13
2022-11-17T07:36:09.831Z,13.52
2022-11-17T07:38:38.708Z,12.23
2022-11-17T07:41:09.894Z,11.77
2022-11-17T07:43:37.203Z,11.00
2022-11-17T07:46:05.421Z,11.68
2022-11-17T07:48:32.786Z,9.90
2022-11-17T07:51:00.648Z,9.18
2022-11-17T07:53:27.836Z,10.05
2022-11-17T07:55:55.179Z,10.90
2022-11-17T07:58:21.899Z,10.02
2022-11-17T08:00:48.617Z,10.45
2022-11-17T08:03:15.483Z,10.65
2022-11-17T08:05:43.769Z,8.95
2022-11-17T08:08:10.630Z,9.43
2022-11-17T08:10:37.302Z,8.65
2022-11-17T08:13:04.034Z,11.05
2022-11-17T08:15:31.413Z,12.85
2022-11-17T08:18:00.106Z,11.38
2022-11-17T08:20:29.374Z,11.52
2022-11-17T08:22:56.333Z,13.35
2022-11-17T08:25:26.414Z,12.18
2022-11-17T08:27:57.705Z,12.32
2022-11-17T08:30:25.654Z,12.65
2022-11-17T08:32:53.846Z,12.18
2022-11-17T08:35:23.611Z,11.60
2022-11-17T08:37:50.336Z,10.60
2022-11-17T08:40:20.621Z,11.15
2022-11-17T08:42:59.114Z,11.77
2022-11-17T08:45:27.645Z,12.27
2022-11-17T08:47:56.263Z,12.52
2022-11-17T08:50:23.243Z,13.82
2022-11-17T08:52:50.093Z,11.82
2022-11-17T08:55:16.959Z,11.43
2022-11-17T08:57:43.950Z,10.15
2022-11-17T09:00:11.323Z,10.15
2022-11-17T09:02:38.671Z,9.55
2022-11-17T09:05:05.932Z,10.20
2022-11-17T09:07:35.053Z,9.98
2022-11-17T09:10:04.111Z,8.45
2022-11-17T09:12:30.816Z,11.52
2022-11-17T09:14:57.584Z,8.70
2022-11-17T09:17:24.203Z,10.40
2022-11-17T09:19:50.833Z,11.02
2022-11-17T09:22:17.512Z,8.73
2022-11-17T09:24:44.196Z,9.30
2022-11-17T09:27:10.971Z,8.23
2022-11-17T09:29:37.736Z,9.55
2022-11-17T09:32:04.662Z,10.18
2022-11-17T09:34:31.458Z,10.25
2022-11-17T09:36:58.227Z,8.27
2022-11-17T09:39:24.975Z,10.20
2022-11-17T09:41:54.324Z,7.72
2022-11-17T09:44:42.305Z,8.65
2022-11-17T09:47:18.178Z,7.40
2022-11-17T09:50:01.051Z,7.70
2022-11-17T09:52:49.495Z,7.93
2022-11-17T09:55:34.342Z,7.72
2022-11-17T09:58:07.095Z,6.38
2022-11-17T10:00:36.474Z,7.65
2022-11-17T10:03:10.079Z,7.97
2022-11-17T10:06:08.458Z,7.50
2022-11-17T10:08:42.719Z,7.07
2022-11-17T10:11:35.097Z,7.13
2022-11-17T10:14:07.839Z,6.57
2022-11-17T10:16:36.506Z,8.68
2022-11-17T10:19:18.911Z,7.13
2022-11-17T10:21:50.205Z,7.63
2022-11-17T10:24:42.076Z,6.75
2022-11-17T10:27:17.906Z,8.55
2022-11-17T10:30:01.193Z,6.53
2022-11-17T10:32:30.146Z,6.68
2022-11-17T10:35:12.347Z,8.10
2022-11-17T10:37:44.606Z,8.82
2022-11-17T10:40:25.287Z,9.65
2022-11-17T10:43:14.145Z,9.95
2022-11-17T10:45:44.988Z,9.98
2022-11-17T10:48:29.804Z,8.93
2022-11-17T10:51:01.460Z,8.40
2022-11-17T10:53:43.340Z,9.43
2022-11-17T10:56:15.873Z,10.18
2022-11-17T10:59:13.649Z,10.73
2022-11-17T11:01:43.816Z,10.85
2022-11-17T11:04:32.232Z,9.13
2022-11-17T11:07:14.252Z,11.60
2022-11-17T11:09:56.189Z,12.77
2022-11-17T11:12:44.984Z,13.27
2022-11-17T11:15:35.732Z,12.90
2022-11-17T11:18:11.396Z,11.13
2022-11-17T11:20:57.215Z,12.10
2022-11-17T11:23:34.822Z,13.07
2022-11-17T11:26:25.693Z,11.98
2022-11-17T11:29:22.468Z,11.27
2022-11-17T11:32:09.660Z,9.55
2022-11-17T11:34:57.867Z,11.05
2022-11-17T11:37:34.007Z,9.40
2022-11-17T11:40:15.359Z,10.18
2022-11-17T11:42:58.435Z,8.30
2022-11-17T11:45:40.165Z,8.02
2022-11-17T11:48:15.865Z,6.80
2022-11-17T11:50:47.468Z,9.65
2022-11-17T11:53:34.569Z,7.82
2022-11-17T11:56:13.561Z,7.82
2022-11-17T11:58:51.105Z,7.97
2022-11-17T12:01:20.538Z,7.65
2022-11-17T12:04:10.998Z,9.30
2022-11-17T12:07:05.404Z,7.75
2022-11-17T12:09:34.934Z,7.60
2022-11-17T12:12:08.512Z,8.40
2022-11-17T12:14:37.813Z,7.82
2022-11-17T12:17:18.557Z,9.50
2022-11-17T12:19:57.515Z,8.35
2022-11-17T12:22:30.365Z,8.88
2022-11-17T12:25:01.315Z,7.95
2022-11-17T12:27:34.096Z,8.25
2022-11-17T12:30:02.456Z,7.40
2022-11-17T12:32:44.530Z,8.85
2022-11-17T12:35:30.936Z,8.23
2022-11-17T12:38:12.867Z,7.25
2022-11-17T12:40:39.569Z,7.85
2022-11-17T12:43:33.006Z,8.40
2022-11-17T12:46:10.990Z,7.80
2022-11-17T12:48:39.949Z,6.05
2022-11-17T12:51:21.789Z,7.75
2022-11-17T12:54:05.289Z,9.02
2022-11-17T12:56:50.184Z,8.93
2022-11-17T12:59:42.545Z,7.85
2022-11-17T13:02:15.490Z,7.65
2022-11-17T13:04:49.807Z,8.05
2022-11-17T13:07:25.676Z,7.53
2022-11-17T13:09:57.990Z,7.75
2022-11-17T13:12:30.348Z,9.73
2022-11-17T13:14:59.317Z,7.35
2022-11-17T13:17:40.217Z,7.90
2022-11-17T13:20:24.280Z,8.45
2022-11-17T13:23:23.426Z,7.10
2022-11-17T13:25:51.090Z,7.82
2022-11-17T13:28:32.200Z,7.60
2022-11-17T13:31:00.686Z,8.38
2022-11-17T13:33:28.698Z,7.43
2022-11-17T13:36:18.538Z,7.82
2022-11-17T13:38:50.429Z,8.90
2022-11-17T13:41:18.923Z,8.23
2022-11-17T13:43:47.191Z,8.23
2022-11-17T13:46:15.290Z,8.57
2022-11-17T13:48:44.486Z,8.35
2022-11-17T13:51:38.858Z,7.32
2022-11-17T13:54:12.254Z,8.05
2022-11-17T13:56:49.258Z,7.88
2022-11-17T13:59:32.042Z,9.48
2022-11-17T14:02:17.195Z,8.35
2022-11-17T14:05:19.370Z,8.05
2022-11-17T14:07:46.873Z,8.98
2022-11-17T14:10:19.934Z,8.20
2022-11-17T14:13:02.518Z,8.65
2022-11-17T14:15:32.056Z,8.60
2022-11-17T14:18:01.951Z,8.55
2022-11-17T14:20:34.939Z,7.13
2022-11-17T14:23:08.542Z,9.40
2022-11-17T14:25:38.538Z,7.93
2022-11-17T14:28:11.873Z,7.05
2022-11-17T14:30:38.549Z,7.80
2022-11-17T14:33:10.475Z,7.68
2022-11-17T14:35:40.173Z,8.52
2022-11-17T14:38:10.414Z,9.27
2022-11-17T14:40:37.058Z,10.30
2022-11-17T14:43:03.790Z,7.93
2022-11-17T14:45:30.722Z,8.88
2022-11-17T14:47:57.369Z,9.32
2022-11-17T14:50:24.145Z,8.65
2022-11-17T14:52:50.743Z,8.50
2022-11-17T14:55:17.379Z,7.57
2022-11-17T14:57:44.000Z,7.57
2022-11-17T15:00:15.826Z,7.10
2022-11-17T15:02:46.217Z,10.63
2022-11-17T15:05:12.970Z,9.10
2022-11-17T15:07:39.733Z,10.32
2022-11-17T15:10:07.936Z,7.53
2022-11-17T15:12:34.986Z,7.57
2022-11-17T15:15:01.795Z,9.07
2022-11-17T15:17:29.095Z,8.30
2022-11-17T15:19:55.763Z,10.23
2022-11-17T15:22:22.634Z,9.55
2022-11-17T15:24:49.263Z,9.23
2022-11-17T15:27:16.250Z,9.57
2022-11-17T15:29:42.935Z,9.65
2022-11-17T15:32:10.648Z,13.13
2022-11-17T15:34:37.405Z,9.85
2022-11-17T15:37:04.259Z,9.90
2022-11-17T15:39:30.966Z,9.77
2022-11-17T15:41:57.586Z,9.63
2022-11-17T15:44:24.461Z,9.50
2022-11-17T15:46:51.089Z,9.50
2022-11-17T15:49:18.158Z,8.85
2022-11-17T15:51:45.666Z,10.20
2022-11-17T15:54:18.479Z,9.13
2022-11-17T15:56:47.164Z,10.43
2022-11-17T15:59:14.380Z,10.10
2022-11-17T16:01:41.733Z,10.70
2022-11-17T16:04:11.392Z,9.82
2022-11-17T16:06:40.107Z,9.73
2022-11-17T16:09:07.876Z,9.45
2022-11-17T16:11:35.111Z,10.48
2022-11-17T16:14:02.176Z,9.70
2022-11-17T16:16:34.354Z,8.75
2022-11-17T16:21:28.092Z,8.70
2022-11-17T16:23:56.789Z,10.02
2022-11-17T16:26:25.743Z,9.48
2022-11-17T16:28:59.944Z,10.35
2022-11-17T16:31:32.794Z,9.55
2022-11-17T16:34:11.486Z,10.05
2022-11-17T16:36:39.638Z,9.57
2022-11-17T16:39:08.626Z,10.38
2022-11-17T16:41:37.711Z,10.60
2022-11-17T16:44:11.787Z,10.30
2022-11-17T16:46:41.241Z,9.05
2022-11-17T16:49:10.937Z,10.77
2022-11-17T16:51:37.592Z,9.90
2022-11-17T16:54:06.696Z,9.50
2022-11-17T16:56:34.371Z,10.20
2022-11-17T16:59:01.182Z,9.13
2022-11-17T17:01:32.362Z,11.35
2022-11-17T17:04:01.307Z,9.25
2022-11-17T17:06:28.155Z,10.82
2022-11-17T17:09:04.645Z,11.05
2022-11-17T17:11:32.554Z,10.15
2022-11-17T17:14:04.714Z,10.77
2022-11-17T17:16:33.233Z,11.38
2022-11-17T17:19:02.144Z,11.05
2022-11-17T17:21:31.247Z,11.75
2022-11-17T17:23:58.242Z,10.15
2022-11-17T17:26:26.854Z,11.45
2022-11-17T17:28:58.304Z,10.45
2022-11-17T17:31:26.825Z,12.18
2022-11-17T17:33:55.029Z,11.43
2022-11-17T17:36:23.979Z,12.25
2022-11-17T17:38:55.430Z,12.25
2022-11-17T17:41:25.084Z,11.65
2022-11-17T17:43:58.521Z,10.13
2022-11-17T17:46:25.866Z,11.55
2022-11-17T17:48:52.652Z,10.27
2022-11-17T17:51:21.290Z,11.73
2022-11-17T17:53:51.914Z,18.85
2022-11-17T17:56:19.961Z,13.88
2022-11-17T17:58:51.166Z,12.55
2022-11-17T18:01:24.470Z,13.80
2022-11-17T18:03:53.796Z,13.43
2022-11-17T18:06:22.308Z,12.45
2022-11-17T18:08:49.968Z,12.57
2022-11-17T18:11:19.789Z,13.18
2022-11-17T18:13:49.223Z,12.00
2022-11-17T18:16:23.218Z,11.60
2022-11-17T18:18:55.084Z,12.13
2022-11-17T18:21:21.850Z,12.05
2022-11-17T18:23:48.626Z,11.38
2022-11-17T18:26:18.282Z,12.30
2022-11-17T18:28:53.915Z,13.48
2022-11-17T18:31:22.555Z,11.80
2022-11-17T18:34:18.989Z,11.55
2022-11-17T18:36:45.718Z,11.75
2022-11-17T18:39:12.637Z,12.50
2022-11-17T18:41:39.410Z,11.82
2022-11-17T18:44:06.247Z,13.85
2022-11-17T18:46:33.870Z,11.68
2022-11-17T18:49:00.986Z,12.43
2022-11-17T18:51:29.977Z,13.82
2022-11-17T18:53:59.143Z,13.75
2022-11-17T18:56:28.314Z,13.00
2022-11-17T18:58:55.511Z,11.43
2022-11-17T19:01:24.589Z,13.05
2022-11-17T19:03:53.490Z,12.18
2022-11-17T19:06:22.022Z,12.32
2022-11-17T19:08:49.558Z,11.93
2022-11-17T19:11:17.599Z,13.48
2022-11-17T19:13:44.349Z,14.90
2022-11-17T19:16:18.753Z,13.25
2022-11-17T19:18:47.606Z,11.18
2022-11-17T19:21:17.735Z,13.30
2022-11-17T19:23:51.131Z,12.57
2022-11-17T19:26:27.335Z,11.85
2022-11-17T19:28:58.889Z,13.82
2022-11-17T19:31:26.229Z,13.85
2022-11-17T19:33:54.335Z,13.52
2022-11-17T19:36:23.921Z,13.68
2022-11-17T19:38:55.845Z,14.88
2022-11-17T19:41:36.587Z,14.25
2022-11-17T19:44:05.714Z,13.10
2022-11-17T19:46:33.234Z,16.10
2022-11-17T19:49:00.468Z,15.00
2022-11-17T19:51:29.530Z,14.70
2022-11-17T19:54:16.537Z,16.33
2022-11-17T19:56:43.317Z,15.25
2022-11-17T19:59:16.491Z,15.23
2022-11-17T20:01:44.110Z,13.90
2022-11-17T20:04:10.834Z,14.05
2022-11-17T20:06:38.970Z,14.80
2022-11-17T20:09:11.395Z,16.35
2022-11-17T20:11:38.510Z,14.95
2022-11-17T20:14:05.253Z,17.20
2022-11-17T20:16:32.301Z,15.15
2022-11-17T20:19:01.440Z,15.70
2022-11-17T20:21:29.619Z,17.02
2022-11-17T20:23:57.431Z,17.17
2022-11-17T20:26:26.632Z,18.08
2022-11-17T20:28:54.149Z,16.48
2022-11-17T20:31:21.717Z,17.40
2022-11-17T20:33:49.104Z,17.77
2022-11-17T20:36:21.233Z,16.42
2022-11-17T20:38:51.256Z,15.60
2022-11-17T20:41:18.129Z,17.55
2022-11-17T20:43:48.197Z,17.92
2022-11-17T20:46:14.981Z,16.48
2022-11-17T20:48:41.704Z,19.55
2022-11-17T20:51:14.043Z,18.52
2022-11-17T20:53:40.921Z,20.08
2022-11-17T20:56:10.620Z,18.98
2022-11-17T20:58:37.968Z,22.48
2022-11-17T21:01:09.859Z,20.95
2022-11-17T21:03:36.794Z,22.00
2022-11-17T21:06:04.687Z,23.15
2022-11-17T21:08:34.785Z,25.83
2022-11-17T21:11:04.605Z,26.00
2022-11-17T21:13:35.840Z,26.27
2022-11-17T21:16:10.625Z,25.67
2022-11-17T21:18:39.358Z,26.75
2022-11-17T21:21:09.194Z,29.60
2022-11-17T21:23:37.745Z,26.13
2022-11-17T21:26:06.754Z,27.33
2022-11-17T21:28:34.626Z,30.20
2022-11-17T21:31:28.689Z,28.67
2022-11-17T21:34:01.058Z,29.15
2022-11-17T21:36:29.879Z,31.10
2022-11-17T21:38:57.153Z,30.13
2022-11-17T21:41:26.461Z,26.50
2022-11-17T21:43:55.226Z,28.20
2022-11-17T21:46:24.179Z,25.35
2022-11-17T21:48:52.149Z,29.90
2022-11-17T21:51:26.859Z,26.48
2022-11-17T21:53:58.371Z,24.05
2022-11-17T21:56:26.912Z,29.85
2022-11-17T21:58:58.584Z,26.08
2022-11-17T22:01:25.815Z,28.90
2022-11-17T22:03:52.592Z,30.52
2022-11-17T22:06:22.770Z,29.25
2022-11-17T22:08:50.539Z,28.60
2022-11-17T22:11:35.231Z,28.92
2022-11-17T22:14:15.645Z,30.35
2022-11-17T22:16:47.466Z,27.55
2022-11-17T22:19:16.280Z,26.92
2022-11-17T22:21:44.173Z,29.33
2022-11-17T22:24:12.091Z,27.52
2022-11-17T22:26:41.128Z,27.48
2022-11-17T22:29:15.411Z,33.88
2022-11-17T22:31:42.645Z,29.33
2022-11-17T22:34:09.521Z,29.90
2022-11-17T22:36:36.528Z,29.48
2022-11-17T22:39:04.017Z,34.22
2022-11-17T22:41:31.229Z,29.20
2022-11-17T22:43:58.316Z,27.05
2022-11-17T22:46:27.260Z,27.88
2022-11-17T22:48:54.293Z,24.20
2022-11-17T22:51:40.244Z,26.33
2022-11-17T22:54:07.829Z,27.00
2022-11-17T22:56:35.218Z,25.27
2022-11-17T22:59:02.020Z,24.38
2022-11-17T23:01:28.925Z,24.58
2022-11-17T23:03:55.604Z,22.73
2022-11-17T23:06:22.813Z,22.48
2022-11-17T23:08:50.356Z,24.20
2022-11-17T23:14:09.254Z,19.27
2022-11-17T23:16:37.403Z,21.05
2022-11-17T23:19:05.248Z,20.63
2022-11-17T23:21:32.049Z,20.50
2022-11-17T23:23:58.870Z,21.75
2022-11-17T23:26:25.723Z,23.75
2022-11-17T23:28:52.702Z,19.85
2022-11-17T23:31:19.717Z,19.70
2022-11-17T23:33:47.615Z,19.33
2022-11-17T23:36:20.076Z,19.02
2022-11-17T23:38:47.763Z,19.85
2022-11-17T23:41:17.112Z,18.38
2022-11-17T23:43:44.167Z,19.23
2022-11-17T23:46:14.013Z,20.45
2022-11-17T23:48:41.397Z,21.83
2022-11-17T23:51:10.626Z,18.95
2022-11-17T23:53:37.703Z,21.08
2022-11-17T23:56:05.490Z,21.02
2022-11-17T23:58:32.542Z,23.15
